sensor_id;sensor_type;location;lat;lon;timestamp;P1;durP1;ratioP1;P2;durP2;ratioP2
48911;SDS011;34722;52.108;5.044;2023-06-22T00:01:32;11.32;;;7.43;;
48911;SDS011;34722;52.108;5.044;2023-06-22T00:03:58;11.10;;;6.25;;
48911;SDS011;34722;52.108;5.044;2023-06-22T00:06:27;11.82;;;7.50;;
48911;SDS011;34722;52.108;5.044;2023-06-22T00:08:53;9.00;;;6.40;;
48911;SDS011;34722;52.108;5.044;2023-06-22T00:11:19;9.43;;;6.88;;
48911;SDS011;34722;52.108;5.044;2023-06-22T00:13:45;12.00;;;7.28;;
48911;SDS011;34722;52.108;5.044;2023-06-22T00:16:12;12.27;;;8.25;;
48911;SDS011;34722;52.108;5.044;2023-06-22T00:18:38;12.90;;;8.07;;
48911;SDS011;34722;52.108;5.044;2023-06-22T00:21:04;12.88;;;8.43;;
48911;SDS011;34722;52.108;5.044;2023-06-22T00:23:31;14.10;;;8.73;;
48911;SDS011;34722;52.108;5.044;2023-06-22T00:25:59;11.13;;;8.05;;
48911;SDS011;34722;52.108;5.044;2023-06-22T00:28:24;12.23;;;9.10;;
48911;SDS011;34722;52.108;5.044;2023-06-22T00:30:50;13.10;;;9.07;;
48911;SDS011;34722;52.108;5.044;2023-06-22T00:33:16;18.00;;;10.43;;
48911;SDS011;34722;52.108;5.044;2023-06-22T00:35:42;17.55;;;10.10;;
48911;SDS011;34722;52.108;5.044;2023-06-22T00:38:07;15.63;;;9.50;;
48911;SDS011;34722;52.108;5.044;2023-06-22T00:40:36;14.35;;;9.48;;
48911;SDS011;34722;52.108;5.044;2023-06-22T00:43:03;15.23;;;9.75;;
48911;SDS011;34722;52.108;5.044;2023-06-22T00:45:32;15.70;;;10.50;;
48911;SDS011;34722;52.108;5.044;2023-06-22T00:47:58;19.83;;;10.90;;
48911;SDS011;34722;52.108;5.044;2023-06-22T00:50:25;18.42;;;11.00;;
48911;SDS011;34722;52.108;5.044;2023-06-22T00:52:53;14.52;;;9.70;;
48911;SDS011;34722;52.108;5.044;2023-06-22T00:55:21;17.30;;;10.48;;
48911;SDS011;34722;52.108;5.044;2023-06-22T00:57:48;16.95;;;9.35;;
48911;SDS011;34722;52.108;5.044;2023-06-22T01:00:16;19.35;;;11.70;;
48911;SDS011;34722;52.108;5.044;2023-06-22T01:02:45;19.10;;;12.85;;
48911;SDS011;34722;52.108;5.044;2023-06-22T01:05:14;17.48;;;11.38;;
48911;SDS011;34722;52.108;5.044;2023-06-22T01:08:00;20.92;;;11.30;;
48911;SDS011;34722;52.108;5.044;2023-06-22T01:10:51;18.95;;;12.10;;
48911;SDS011;34722;52.108;5.044;2023-06-22T01:13:20;20.75;;;12.82;;
48911;SDS011;34722;52.108;5.044;2023-06-22T01:15:49;18.90;;;12.45;;
48911;SDS011;34722;52.108;5.044;2023-06-22T01:18:30;18.90;;;12.63;;
48911;SDS011;34722;52.108;5.044;2023-06-22T01:20:58;19.70;;;13.55;;
48911;SDS011;34722;52.108;5.044;2023-06-22T01:23:27;18.92;;;12.73;;
48911;SDS011;34722;52.108;5.044;2023-06-22T01:26:20;24.42;;;13.20;;
48911;SDS011;34722;52.108;5.044;2023-06-22T01:28:54;25.90;;;14.50;;
48911;SDS011;34722;52.108;5.044;2023-06-22T01:31:24;21.00;;;14.32;;
48911;SDS011;34722;52.108;5.044;2023-06-22T01:33:53;22.63;;;14.48;;
48911;SDS011;34722;52.108;5.044;2023-06-22T01:36:40;28.42;;;14.65;;
48911;SDS011;34722;52.108;5.044;2023-06-22T01:39:06;23.38;;;14.27;;
48911;SDS011;34722;52.108;5.044;2023-06-22T01:41:35;22.88;;;14.32;;
48911;SDS011;34722;52.108;5.044;2023-06-22T01:44:04;21.98;;;14.88;;
48911;SDS011;34722;52.108;5.044;2023-06-22T01:46:37;23.50;;;14.57;;
48911;SDS011;34722;52.108;5.044;2023-06-22T01:49:04;23.55;;;15.63;;
48911;SDS011;34722;52.108;5.044;2023-06-22T01:51:36;24.48;;;15.52;;
48911;SDS011;34722;52.108;5.044;2023-06-22T01:54:02;25.25;;;15.75;;
48911;SDS011;34722;52.108;5.044;2023-06-22T01:56:28;26.92;;;16.63;;
48911;SDS011;34722;52.108;5.044;2023-06-22T01:59:00;25.85;;;16.67;;
48911;SDS011;34722;52.108;5.044;2023-06-22T02:01:48;29.48;;;16.70;;
48911;SDS011;34722;52.108;5.044;2023-06-22T02:04:42;30.25;;;17.13;;
48911;SDS011;34722;52.108;5.044;2023-06-22T02:07:14;27.10;;;18.52;;
48911;SDS011;34722;52.108;5.044;2023-06-22T02:09:43;32.78;;;18.10;;
48911;SDS011;34722;52.108;5.044;2023-06-22T02:12:12;32.03;;;18.83;;
48911;SDS011;34722;52.108;5.044;2023-06-22T02:14:42;34.83;;;21.15;;
48911;SDS011;34722;52.108;5.044;2023-06-22T05:39:20;35.45;;;23.40;;
48911;SDS011;34722;52.108;5.044;2023-06-22T05:41:46;35.08;;;22.70;;
48911;SDS011;34722;52.108;5.044;2023-06-22T05:44:11;29.75;;;20.33;;
48911;SDS011;34722;52.108;5.044;2023-06-22T05:46:41;34.60;;;20.48;;
48911;SDS011;34722;52.108;5.044;2023-06-22T05:49:11;30.98;;;20.52;;
48911;SDS011;34722;52.108;5.044;2023-06-22T05:51:38;32.28;;;19.55;;
48911;SDS011;34722;52.108;5.044;2023-06-22T05:54:04;26.75;;;19.55;;
48911;SDS011;34722;52.108;5.044;2023-06-22T05:56:29;27.27;;;18.77;;
48911;SDS011;34722;52.108;5.044;2023-06-22T05:58:55;27.30;;;20.35;;
48911;SDS011;34722;52.108;5.044;2023-06-22T06:01:20;29.73;;;21.63;;
48911;SDS011;34722;52.108;5.044;2023-06-22T06:03:46;28.65;;;22.42;;
48911;SDS011;34722;52.108;5.044;2023-06-22T06:06:13;32.70;;;22.63;;
48911;SDS011;34722;52.108;5.044;2023-06-22T06:08:39;33.08;;;24.25;;
48911;SDS011;34722;52.108;5.044;2023-06-22T06:11:05;27.85;;;20.45;;
48911;SDS011;34722;52.108;5.044;2023-06-22T06:13:30;30.95;;;22.95;;
48911;SDS011;34722;52.108;5.044;2023-06-22T06:15:56;34.60;;;22.38;;
48911;SDS011;34722;52.108;5.044;2023-06-22T06:18:22;26.65;;;21.38;;
48911;SDS011;34722;52.108;5.044;2023-06-22T06:20:48;27.65;;;21.02;;
48911;SDS011;34722;52.108;5.044;2023-06-22T06:23:14;29.92;;;21.75;;
48911;SDS011;34722;52.108;5.044;2023-06-22T06:25:39;30.23;;;22.33;;
48911;SDS011;34722;52.108;5.044;2023-06-22T06:28:05;30.75;;;22.67;;
48911;SDS011;34722;52.108;5.044;2023-06-22T06:30:31;36.17;;;25.23;;
48911;SDS011;34722;52.108;5.044;2023-06-22T06:33:00;32.00;;;22.10;;
48911;SDS011;34722;52.108;5.044;2023-06-22T06:35:26;33.30;;;24.88;;
48911;SDS011;34722;52.108;5.044;2023-06-22T06:37:52;33.35;;;23.20;;
48911;SDS011;34722;52.108;5.044;2023-06-22T06:40:18;34.40;;;25.73;;
48911;SDS011;34722;52.108;5.044;2023-06-22T06:42:44;27.70;;;22.63;;
48911;SDS011;34722;52.108;5.044;2023-06-22T06:45:18;32.70;;;24.77;;
48911;SDS011;34722;52.108;5.044;2023-06-22T06:47:45;36.90;;;26.13;;
48911;SDS011;34722;52.108;5.044;2023-06-22T06:50:11;32.08;;;24.55;;
48911;SDS011;34722;52.108;5.044;2023-06-22T06:52:38;29.25;;;24.52;;
48911;SDS011;34722;52.108;5.044;2023-06-22T06:55:04;28.25;;;23.02;;
48911;SDS011;34722;52.108;5.044;2023-06-22T06:57:34;30.90;;;24.80;;
48911;SDS011;34722;52.108;5.044;2023-06-22T06:59:59;27.65;;;21.92;;
48911;SDS011;34722;52.108;5.044;2023-06-22T07:02:25;30.00;;;23.67;;
48911;SDS011;34722;52.108;5.044;2023-06-22T07:04:52;29.98;;;22.92;;
48911;SDS011;34722;52.108;5.044;2023-06-22T07:07:20;24.48;;;20.75;;
48911;SDS011;34722;52.108;5.044;2023-06-22T07:09:46;24.73;;;21.58;;
48911;SDS011;34722;52.108;5.044;2023-06-22T07:12:12;27.50;;;22.52;;
48911;SDS011;34722;52.108;5.044;2023-06-22T07:14:38;23.77;;;21.20;;
48911;SDS011;34722;52.108;5.044;2023-06-22T07:17:03;23.10;;;20.27;;
48911;SDS011;34722;52.108;5.044;2023-06-22T07:19:29;23.45;;;20.58;;
48911;SDS011;34722;52.108;5.044;2023-06-22T07:21:56;23.23;;;20.73;;
48911;SDS011;34722;52.108;5.044;2023-06-22T07:24:22;24.15;;;21.20;;
48911;SDS011;34722;52.108;5.044;2023-06-22T07:26:52;26.15;;;20.80;;
48911;SDS011;34722;52.108;5.044;2023-06-22T07:29:24;27.02;;;19.98;;
48911;SDS011;34722;52.108;5.044;2023-06-22T07:31:51;22.10;;;19.27;;
48911;SDS011;34722;52.108;5.044;2023-06-22T07:34:18;23.58;;;19.27;;
48911;SDS011;34722;52.108;5.044;2023-06-22T07:36:44;22.98;;;19.73;;
48911;SDS011;34722;52.108;5.044;2023-06-22T07:39:11;21.98;;;19.58;;
48911;SDS011;34722;52.108;5.044;2023-06-22T07:41:38;23.38;;;20.13;;
48911;SDS011;34722;52.108;5.044;2023-06-22T07:44:05;22.67;;;20.33;;
48911;SDS011;34722;52.108;5.044;2023-06-22T07:46:31;21.42;;;18.90;;
48911;SDS011;34722;52.108;5.044;2023-06-22T07:48:57;26.38;;;19.63;;
48911;SDS011;34722;52.108;5.044;2023-06-22T07:51:23;25.33;;;20.85;;
48911;SDS011;34722;52.108;5.044;2023-06-22T07:53:49;20.10;;;17.30;;
48911;SDS011;34722;52.108;5.044;2023-06-22T07:56:14;21.48;;;19.13;;
48911;SDS011;34722;52.108;5.044;2023-06-22T07:58:44;19.52;;;17.42;;
48911;SDS011;34722;52.108;5.044;2023-06-22T08:01:11;18.08;;;16.27;;
48911;SDS011;34722;52.108;5.044;2023-06-22T08:03:37;20.98;;;17.20;;
48911;SDS011;34722;52.108;5.044;2023-06-22T08:06:04;16.63;;;14.85;;
48911;SDS011;34722;52.108;5.044;2023-06-22T08:08:33;19.25;;;15.55;;
48911;SDS011;34722;52.108;5.044;2023-06-22T08:10:59;16.65;;;14.43;;
48911;SDS011;34722;52.108;5.044;2023-06-22T08:13:25;20.85;;;16.13;;
48911;SDS011;34722;52.108;5.044;2023-06-22T08:15:51;18.05;;;15.00;;
48911;SDS011;34722;52.108;5.044;2023-06-22T08:18:17;16.90;;;14.57;;
48911;SDS011;34722;52.108;5.044;2023-06-22T08:30:56;15.27;;;11.70;;
48911;SDS011;34722;52.108;5.044;2023-06-22T08:33:23;14.48;;;12.98;;
48911;SDS011;34722;52.108;5.044;2023-06-22T08:36:02;14.57;;;12.60;;
48911;SDS011;34722;52.108;5.044;2023-06-22T08:38:33;13.98;;;12.25;;
48911;SDS011;34722;52.108;5.044;2023-06-22T08:40:59;13.20;;;11.90;;
48911;SDS011;34722;52.108;5.044;2023-06-22T08:43:26;14.40;;;12.93;;
48911;SDS011;34722;52.108;5.044;2023-06-22T08:45:52;14.80;;;13.30;;
48911;SDS011;34722;52.108;5.044;2023-06-22T08:48:18;14.10;;;11.52;;
48911;SDS011;34722;52.108;5.044;2023-06-22T08:50:44;64.43;;;21.08;;
48911;SDS011;34722;52.108;5.044;2023-06-22T08:53:10;14.77;;;12.85;;
48911;SDS011;34722;52.108;5.044;2023-06-22T08:55:36;18.98;;;14.80;;
48911;SDS011;34722;52.108;5.044;2023-06-22T08:58:23;20.58;;;14.70;;
48911;SDS011;34722;52.108;5.044;2023-06-22T09:00:51;15.93;;;14.32;;
48911;SDS011;34722;52.108;5.044;2023-06-22T09:03:20;15.32;;;13.82;;
48911;SDS011;34722;52.108;5.044;2023-06-22T09:05:46;16.58;;;14.27;;
48911;SDS011;34722;52.108;5.044;2023-06-22T09:08:12;18.30;;;14.88;;
48911;SDS011;34722;52.108;5.044;2023-06-22T09:10:40;32.72;;;15.27;;
48911;SDS011;34722;52.108;5.044;2023-06-22T09:13:06;14.30;;;12.25;;
48911;SDS011;34722;52.108;5.044;2023-06-22T09:15:33;14.32;;;12.85;;
48911;SDS011;34722;52.108;5.044;2023-06-22T09:18:36;18.48;;;12.98;;
48911;SDS011;34722;52.108;5.044;2023-06-22T09:21:24;18.80;;;16.45;;
48911;SDS011;34722;52.108;5.044;2023-06-22T09:24:00;18.33;;;14.73;;
48911;SDS011;34722;52.108;5.044;2023-06-22T09:26:26;17.88;;;15.88;;
48911;SDS011;34722;52.108;5.044;2023-06-22T09:28:56;17.23;;;15.18;;
48911;SDS011;34722;52.108;5.044;2023-06-22T09:31:23;16.52;;;14.02;;
48911;SDS011;34722;52.108;5.044;2023-06-22T09:37:14;17.90;;;16.02;;
48911;SDS011;34722;52.108;5.044;2023-06-22T09:39:57;20.63;;;16.58;;
48911;SDS011;34722;52.108;5.044;2023-06-22T09:42:26;18.90;;;16.83;;
48911;SDS011;34722;52.108;5.044;2023-06-22T09:44:52;17.02;;;14.43;;
48911;SDS011;34722;52.108;5.044;2023-06-22T09:47:21;18.48;;;15.80;;
48911;SDS011;34722;52.108;5.044;2023-06-22T09:49:47;17.88;;;15.75;;
48911;SDS011;34722;52.108;5.044;2023-06-22T09:52:12;18.83;;;14.88;;
48911;SDS011;34722;52.108;5.044;2023-06-22T09:54:38;17.77;;;14.38;;
48911;SDS011;34722;52.108;5.044;2023-06-22T09:57:04;15.93;;;14.25;;
48911;SDS011;34722;52.108;5.044;2023-06-22T09:59:33;17.55;;;14.88;;
48911;SDS011;34722;52.108;5.044;2023-06-22T10:01:59;15.95;;;13.57;;
48911;SDS011;34722;52.108;5.044;2023-06-22T10:04:25;16.20;;;14.05;;
48911;SDS011;34722;52.108;5.044;2023-06-22T10:06:51;16.50;;;13.45;;
48911;SDS011;34722;52.108;5.044;2023-06-22T10:09:17;15.00;;;11.60;;
48911;SDS011;34722;52.108;5.044;2023-06-22T10:11:43;12.32;;;8.85;;
48911;SDS011;34722;52.108;5.044;2023-06-22T10:14:09;12.63;;;10.07;;
48911;SDS011;34722;52.108;5.044;2023-06-22T10:16:36;12.65;;;9.98;;
48911;SDS011;34722;52.108;5.044;2023-06-22T10:19:01;10.20;;;7.40;;
48911;SDS011;34722;52.108;5.044;2023-06-22T10:21:27;10.25;;;8.35;;
48911;SDS011;34722;52.108;5.044;2023-06-22T10:23:55;12.40;;;8.82;;
48911;SDS011;34722;52.108;5.044;2023-06-22T10:26:21;9.05;;;7.15;;
48911;SDS011;34722;52.108;5.044;2023-06-22T10:28:47;7.15;;;6.30;;
48911;SDS011;34722;52.108;5.044;2023-06-22T10:31:13;7.75;;;6.75;;
48911;SDS011;34722;52.108;5.044;2023-06-22T10:33:41;8.05;;;6.60;;
48911;SDS011;34722;52.108;5.044;2023-06-22T10:36:09;9.93;;;6.45;;
48911;SDS011;34722;52.108;5.044;2023-06-22T10:38:35;9.13;;;6.65;;
48911;SDS011;34722;52.108;5.044;2023-06-22T10:41:04;10.90;;;8.05;;
48911;SDS011;34722;52.108;5.044;2023-06-22T10:43:34;8.15;;;6.95;;
48911;SDS011;34722;52.108;5.044;2023-06-22T10:46:00;8.10;;;6.75;;
48911;SDS011;34722;52.108;5.044;2023-06-22T10:48:39;8.65;;;6.85;;
48911;SDS011;34722;52.108;5.044;2023-06-22T10:51:29;14.68;;;8.60;;
48911;SDS011;34722;52.108;5.044;2023-06-22T10:53:58;11.52;;;7.10;;
48911;SDS011;34722;52.108;5.044;2023-06-22T10:56:29;8.80;;;7.13;;
48911;SDS011;34722;52.108;5.044;2023-06-22T10:59:00;8.85;;;7.28;;
48911;SDS011;34722;52.108;5.044;2023-06-22T11:01:39;10.05;;;7.40;;
48911;SDS011;34722;52.108;5.044;2023-06-22T11:04:08;9.05;;;6.95;;
48911;SDS011;34722;52.108;5.044;2023-06-22T11:06:40;8.30;;;6.88;;
48911;SDS011;34722;52.108;5.044;2023-06-22T11:09:06;10.18;;;7.82;;
48911;SDS011;34722;52.108;5.044;2023-06-22T11:11:36;10.10;;;7.50;;
48911;SDS011;34722;52.108;5.044;2023-06-22T11:14:02;11.13;;;7.93;;
48911;SDS011;34722;52.108;5.044;2023-06-22T11:16:28;12.88;;;8.60;;
48911;SDS011;34722;52.108;5.044;2023-06-22T11:18:54;11.30;;;8.00;;
48911;SDS011;34722;52.108;5.044;2023-06-22T11:21:20;14.10;;;10.52;;
48911;SDS011;34722;52.108;5.044;2023-06-22T11:23:46;16.50;;;10.15;;
48911;SDS011;34722;52.108;5.044;2023-06-22T11:26:11;15.15;;;12.02;;
48911;SDS011;34722;52.108;5.044;2023-06-22T11:28:37;16.52;;;10.25;;
48911;SDS011;34722;52.108;5.044;2023-06-22T11:31:03;18.13;;;11.00;;
48911;SDS011;34722;52.108;5.044;2023-06-22T11:33:29;13.73;;;10.63;;
48911;SDS011;34722;52.108;5.044;2023-06-22T11:35:55;14.93;;;11.88;;
48911;SDS011;34722;52.108;5.044;2023-06-22T11:38:22;14.88;;;11.65;;
48911;SDS011;34722;52.108;5.044;2023-06-22T11:40:48;13.65;;;11.43;;
48911;SDS011;34722;52.108;5.044;2023-06-22T11:43:13;16.27;;;11.82;;
48911;SDS011;34722;52.108;5.044;2023-06-22T11:45:42;13.70;;;11.13;;
48911;SDS011;34722;52.108;5.044;2023-06-22T11:48:14;17.98;;;12.15;;
48911;SDS011;34722;52.108;5.044;2023-06-22T11:50:40;18.10;;;11.20;;
48911;SDS011;34722;52.108;5.044;2023-06-22T11:53:08;14.15;;;11.70;;
48911;SDS011;34722;52.108;5.044;2023-06-22T11:55:43;12.88;;;10.68;;
48911;SDS011;34722;52.108;5.044;2023-06-22T11:58:09;17.33;;;11.45;;
48911;SDS011;34722;52.108;5.044;2023-06-22T12:00:36;15.27;;;10.48;;
48911;SDS011;34722;52.108;5.044;2023-06-22T12:03:03;13.65;;;10.13;;
48911;SDS011;34722;52.108;5.044;2023-06-22T12:05:39;12.95;;;9.90;;
48911;SDS011;34722;52.108;5.044;2023-06-22T12:08:10;12.27;;;10.25;;
48911;SDS011;34722;52.108;5.044;2023-06-22T12:10:39;15.38;;;9.80;;
48911;SDS011;34722;52.108;5.044;2023-06-22T12:13:13;11.90;;;9.35;;
48911;SDS011;34722;52.108;5.044;2023-06-22T12:15:40;17.88;;;9.93;;
48911;SDS011;34722;52.108;5.044;2023-06-22T12:18:06;12.00;;;9.63;;
48911;SDS011;34722;52.108;5.044;2023-06-22T12:20:32;13.27;;;9.68;;
48911;SDS011;34722;52.108;5.044;2023-06-22T12:23:14;13.27;;;9.48;;
48911;SDS011;34722;52.108;5.044;2023-06-22T12:25:44;11.25;;;9.27;;
48911;SDS011;34722;52.108;5.044;2023-06-22T12:28:24;10.60;;;8.48;;
48911;SDS011;34722;52.108;5.044;2023-06-22T12:31:00;13.70;;;9.20;;
48911;SDS011;34722;52.108;5.044;2023-06-22T12:33:29;10.25;;;8.88;;
48911;SDS011;34722;52.108;5.044;2023-06-22T12:35:56;10.65;;;8.88;;
48911;SDS011;34722;52.108;5.044;2023-06-22T12:38:26;12.70;;;9.52;;
48911;SDS011;34722;52.108;5.044;2023-06-22T12:40:57;12.27;;;8.30;;
48911;SDS011;34722;52.108;5.044;2023-06-22T12:43:28;14.48;;;11.20;;
48911;SDS011;34722;52.108;5.044;2023-06-22T12:45:56;13.07;;;10.43;;
48911;SDS011;34722;52.108;5.044;2023-06-22T12:48:30;18.88;;;12.15;;
48911;SDS011;34722;52.108;5.044;2023-06-22T12:51:19;14.65;;;11.77;;
48911;SDS011;34722;52.108;5.044;2023-06-22T12:56:15;16.70;;;12.95;;
48911;SDS011;34722;52.108;5.044;2023-06-22T12:58:59;18.55;;;13.35;;
48911;SDS011;34722;52.108;5.044;2023-06-22T13:04:22;18.27;;;14.40;;
48911;SDS011;34722;52.108;5.044;2023-06-22T13:06:51;23.05;;;16.45;;
48911;SDS011;34722;52.108;5.044;2023-06-22T13:14:41;22.60;;;18.33;;
48911;SDS011;34722;52.108;5.044;2023-06-22T13:18:19;25.75;;;18.77;;
48911;SDS011;34722;52.108;5.044;2023-06-22T13:21:11;27.42;;;18.77;;
48911;SDS011;34722;52.108;5.044;2023-06-22T13:28:55;24.17;;;18.38;;
48911;SDS011;34722;52.108;5.044;2023-06-22T13:31:29;26.33;;;19.48;;
48911;SDS011;34722;52.108;5.044;2023-06-22T13:34:10;24.95;;;17.23;;
48911;SDS011;34722;52.108;5.044;2023-06-22T13:36:59;21.42;;;16.55;;
48911;SDS011;34722;52.108;5.044;2023-06-22T13:42:35;21.40;;;15.83;;
48911;SDS011;34722;52.108;5.044;2023-06-22T13:45:01;22.05;;;15.85;;
48911;SDS011;34722;52.108;5.044;2023-06-22T13:47:28;19.55;;;15.07;;
48911;SDS011;34722;52.108;5.044;2023-06-22T13:52:58;19.13;;;13.95;;
48911;SDS011;34722;52.108;5.044;2023-06-22T13:55:34;18.00;;;12.85;;
48911;SDS011;34722;52.108;5.044;2023-06-22T13:58:00;20.13;;;14.45;;
48911;SDS011;34722;52.108;5.044;2023-06-22T14:00:26;21.05;;;14.55;;
48911;SDS011;34722;52.108;5.044;2023-06-22T14:02:53;20.88;;;14.75;;
48911;SDS011;34722;52.108;5.044;2023-06-22T14:05:19;21.38;;;14.20;;
48911;SDS011;34722;52.108;5.044;2023-06-22T14:07:45;18.45;;;14.02;;
48911;SDS011;34722;52.108;5.044;2023-06-22T14:10:11;16.80;;;13.38;;
48911;SDS011;34722;52.108;5.044;2023-06-22T14:12:37;18.70;;;13.52;;
48911;SDS011;34722;52.108;5.044;2023-06-22T14:15:03;15.35;;;12.35;;
48911;SDS011;34722;52.108;5.044;2023-06-22T14:17:31;17.48;;;13.05;;
48911;SDS011;34722;52.108;5.044;2023-06-22T20:22:18;7.38;;;5.13;;
48911;SDS011;34722;52.108;5.044;2023-06-22T20:24:44;6.20;;;4.60;;
48911;SDS011;34722;52.108;5.044;2023-06-22T20:27:11;7.18;;;5.03;;
48911;SDS011;34722;52.108;5.044;2023-06-22T20:29:37;6.70;;;4.57;;
48911;SDS011;34722;52.108;5.044;2023-06-22T20:34:40;6.22;;;4.38;;
48911;SDS011;34722;52.108;5.044;2023-06-22T20:37:12;5.03;;;4.03;;
48911;SDS011;34722;52.108;5.044;2023-06-22T20:39:39;5.85;;;4.22;;
48911;SDS011;34722;52.108;5.044;2023-06-22T20:42:06;5.88;;;4.13;;
48911;SDS011;34722;52.108;5.044;2023-06-22T20:44:33;6.70;;;4.10;;
48911;SDS011;34722;52.108;5.044;2023-06-22T20:46:59;5.32;;;3.55;;
48911;SDS011;34722;52.108;5.044;2023-06-22T20:49:26;5.88;;;4.03;;
48911;SDS011;34722;52.108;5.044;2023-06-22T20:51:52;8.43;;;5.25;;
48911;SDS011;34722;52.108;5.044;2023-06-22T20:54:18;6.50;;;4.05;;
48911;SDS011;34722;52.108;5.044;2023-06-22T20:56:47;5.28;;;3.72;;
48911;SDS011;34722;52.108;5.044;2023-06-22T20:59:13;9.90;;;4.13;;
48911;SDS011;34722;52.108;5.044;2023-06-22T21:01:41;6.75;;;4.40;;
48911;SDS011;34722;52.108;5.044;2023-06-22T21:04:13;5.75;;;4.07;;
48911;SDS011;34722;52.108;5.044;2023-06-22T21:06:39;8.75;;;4.28;;
48911;SDS011;34722;52.108;5.044;2023-06-22T21:12:03;7.72;;;4.22;;
48911;SDS011;34722;52.108;5.044;2023-06-22T21:14:29;7.53;;;4.28;;
48911;SDS011;34722;52.108;5.044;2023-06-22T21:16:54;7.60;;;4.13;;
48911;SDS011;34722;52.108;5.044;2023-06-22T21:19:23;7.22;;;4.40;;
48911;SDS011;34722;52.108;5.044;2023-06-22T21:21:49;6.55;;;4.47;;
48911;SDS011;34722;52.108;5.044;2023-06-22T21:24:22;5.43;;;4.15;;
48911;SDS011;34722;52.108;5.044;2023-06-22T21:26:48;6.03;;;4.22;;
48911;SDS011;34722;52.108;5.044;2023-06-22T21:29:14;6.65;;;4.97;;
48911;SDS011;34722;52.108;5.044;2023-06-22T21:31:40;9.13;;;6.57;;
48911;SDS011;34722;52.108;5.044;2023-06-22T21:34:08;7.90;;;4.75;;
48911;SDS011;34722;52.108;5.044;2023-06-22T21:36:34;6.47;;;5.05;;
48911;SDS011;34722;52.108;5.044;2023-06-22T21:41:39;8.75;;;5.22;;
48911;SDS011;34722;52.108;5.044;2023-06-22T21:44:08;13.45;;;6.35;;
48911;SDS011;34722;52.108;5.044;2023-06-22T21:46:34;8.90;;;5.72;;
48911;SDS011;34722;52.108;5.044;2023-06-22T21:49:00;8.27;;;5.65;;
48911;SDS011;34722;52.108;5.044;2023-06-22T21:51:26;8.38;;;6.60;;
48911;SDS011;34722;52.108;5.044;2023-06-22T21:53:51;9.43;;;5.95;;
48911;SDS011;34722;52.108;5.044;2023-06-22T21:56:17;7.80;;;5.80;;
48911;SDS011;34722;52.108;5.044;2023-06-22T21:58:43;9.05;;;5.75;;
48911;SDS011;34722;52.108;5.044;2023-06-22T22:01:09;10.27;;;5.88;;
48911;SDS011;34722;52.108;5.044;2023-06-22T22:03:35;10.63;;;6.75;;
48911;SDS011;34722;52.108;5.044;2023-06-22T22:06:01;10.70;;;6.95;;
48911;SDS011;34722;52.108;5.044;2023-06-22T22:08:27;10.48;;;7.22;;
48911;SDS011;34722;52.108;5.044;2023-06-22T22:10:53;14.60;;;7.82;;
48911;SDS011;34722;52.108;5.044;2023-06-22T22:13:19;13.80;;;7.25;;
48911;SDS011;34722;52.108;5.044;2023-06-22T22:15:44;15.80;;;7.32;;
48911;SDS011;34722;52.108;5.044;2023-06-22T22:18:10;14.07;;;7.28;;
48911;SDS011;34722;52.108;5.044;2023-06-22T22:20:36;11.77;;;7.30;;
48911;SDS011;34722;52.108;5.044;2023-06-22T22:23:02;12.05;;;8.13;;
48911;SDS011;34722;52.108;5.044;2023-06-22T22:25:28;14.02;;;8.00;;
48911;SDS011;34722;52.108;5.044;2023-06-22T22:27:55;14.85;;;9.43;;
48911;SDS011;34722;52.108;5.044;2023-06-22T22:30:21;13.02;;;8.40;;
48911;SDS011;34722;52.108;5.044;2023-06-22T22:35:35;14.43;;;9.65;;
48911;SDS011;34722;52.108;5.044;2023-06-22T22:38:00;13.15;;;9.60;;
48911;SDS011;34722;52.108;5.044;2023-06-22T22:40:27;13.00;;;8.75;;
48911;SDS011;34722;52.108;5.044;2023-06-22T22:42:52;17.35;;;9.50;;
48911;SDS011;34722;52.108;5.044;2023-06-22T22:45:22;12.48;;;9.18;;
48911;SDS011;34722;52.108;5.044;2023-06-22T22:47:47;13.05;;;9.05;;
48911;SDS011;34722;52.108;5.044;2023-06-22T22:50:13;14.15;;;9.05;;
48911;SDS011;34722;52.108;5.044;2023-06-22T22:52:42;12.55;;;8.98;;
48911;SDS011;34722;52.108;5.044;2023-06-22T22:55:12;15.85;;;9.02;;
48911;SDS011;34722;52.108;5.044;2023-06-22T22:57:38;12.50;;;8.38;;
48911;SDS011;34722;52.108;5.044;2023-06-22T23:00:05;11.98;;;8.30;;
48911;SDS011;34722;52.108;5.044;2023-06-22T23:02:40;10.40;;;7.63;;
48911;SDS011;34722;52.108;5.044;2023-06-22T23:05:11;12.45;;;8.38;;
48911;SDS011;34722;52.108;5.044;2023-06-22T23:07:43;10.00;;;7.95;;
48911;SDS011;34722;52.108;5.044;2023-06-22T23:10:09;15.15;;;8.20;;
48911;SDS011;34722;52.108;5.044;2023-06-22T23:12:37;13.30;;;8.88;;
48911;SDS011;34722;52.108;5.044;2023-06-22T23:15:03;12.35;;;8.00;;
48911;SDS011;34722;52.108;5.044;2023-06-22T23:17:32;18.60;;;8.25;;
48911;SDS011;34722;52.108;5.044;2023-06-22T23:20:01;13.40;;;8.27;;
48911;SDS011;34722;52.108;5.044;2023-06-22T23:22:30;15.95;;;9.55;;
48911;SDS011;34722;52.108;5.044;2023-06-22T23:24:59;11.35;;;8.70;;
48911;SDS011;34722;52.108;5.044;2023-06-22T23:27:25;15.02;;;9.70;;
48911;SDS011;34722;52.108;5.044;2023-06-22T23:29:52;15.57;;;10.02;;
48911;SDS011;34722;52.108;5.044;2023-06-22T23:32:18;16.08;;;10.70;;
48911;SDS011;34722;52.108;5.044;2023-06-22T23:34:44;15.18;;;10.68;;
48911;SDS011;34722;52.108;5.044;2023-06-22T23:37:10;16.50;;;12.00;;
48911;SDS011;34722;52.108;5.044;2023-06-22T23:39:35;15.98;;;12.00;;
48911;SDS011;34722;52.108;5.044;2023-06-22T23:42:01;21.40;;;13.65;;
48911;SDS011;34722;52.108;5.044;2023-06-22T23:44:28;20.05;;;14.70;;
48911;SDS011;34722;52.108;5.044;2023-06-22T23:46:54;25.38;;;16.02;;
48911;SDS011;34722;52.108;5.044;2023-06-22T23:49:23;23.45;;;15.38;;
48911;SDS011;34722;52.108;5.044;2023-06-22T23:51:50;23.98;;;15.38;;
48911;SDS011;34722;52.108;5.044;2023-06-22T23:57:38;24.38;;;14.75;;
